ADDS METAR Data INFO
IDs: Format: Raw Decoded Include TAF

Data at: 1839 UTC 17 Oct 2017

KOTG 171756Z AUTO 21008KT 10SM CLR 22/05 A3004 RMK AO2 SLP173 T02220050 10222 20072 58004
KOTG 171656Z AUTO 23007KT 10SM CLR 19/05 A3005 RMK AO2 SLP178 T01940050
KOTG 171556Z AUTO 22005KT 10SM CLR 17/06 A3005 RMK AO2 SLP179 T01670056
KOTG 171456Z AUTO 22007KT 10SM CLR 14/05 A3005 RMK AO2 SLP180 T01390050 53003
KOTG 171356Z AUTO 22008KT 10SM CLR 10/04 A3005 RMK AO2 SLP182 T01000044
KOTG 171256Z AUTO 23007KT 10SM CLR 08/03 A3004 RMK AO2 SLP181 T00780033
KOTG 171156Z AUTO 22006KT 10SM CLR 07/03 A3004 RMK AO2 SLP179 T00720033 10117 20072 53002
KOTG 171056Z AUTO 21009KT 10SM CLR 09/04 A3004 RMK AO2 SLP175 T00890039
KOTG 170956Z AUTO 22006KT 10SM CLR 09/03 A3004 RMK AO2 SLP174 T00890033
KOTG 170856Z AUTO 23006KT 10SM CLR 09/03 A3004 RMK AO2 SLP174 T00940033 51005
KOTG 170756Z AUTO 23005KT 10SM CLR 10/03 A3004 RMK AO2 SLP173 T01000033
KOTG 170656Z AUTO 22006KT 10SM CLR 11/04 A3003 RMK AO2 SLP172 T01060039
KOTG 170556Z AUTO 22009KT 10SM CLR 11/04 A3002 RMK AO2 SLP170 T01110039 10167 20111 402110006 51005
KOTG 170456Z AUTO 23009KT 10SM CLR 12/04 A3002 RMK AO2 SLP169 T01220039
KOTG 170356Z AUTO 23010KT 10SM CLR 14/04 A3003 RMK AO2 SLP173 T01440039
KOTG 170256Z AUTO 21010G16KT 10SM CLR 15/04 A3001 RMK AO2 SLP167 T01500039 58006
KOTG 170156Z AUTO 20012G17KT 10SM CLR 14/04 A3001 RMK AO2 SLP170 T01440039
KOTG 170056Z AUTO 19006KT 10SM CLR 14/03 A3003 RMK AO2 SLP179 T01440033
KOTG 162356Z AUTO 18006KT 10SM CLR 17/03 A3003 RMK AO2 SLP177 T01670033 10211 20167 56008
KOTG 162256Z AUTO 20008KT 10SM CLR 19/03 A3003 RMK AO2 SLP177 T01940033
KOTG 162156Z AUTO 21013G21KT 10SM CLR 21/02 A3004 RMK AO2 SLP178 T02110022
KOTG 162056Z AUTO 21014G20KT 10SM CLR 21/02 A3005 RMK AO2 SLP183 T02060022 56039
KOTG 161956Z AUTO 19014G20KT 10SM CLR 21/01 A3008 RMK AO2 SLP191 T02060011
KOTG 161856Z AUTO 18014G20KT 10SM CLR 19/01 A3012 RMK AO2 SLP207 T01940006
KOTG 161756Z AUTO 21014G19KT 10SM CLR 18/01 A3017 RMK AO2 SLP225 T01780011 10178 20011 58025
KOTG 161656Z AUTO 20014G20KT 10SM CLR 16/02 A3021 RMK AO2 SLP239 T01560017
KOTG 161556Z AUTO 21013G18KT 10SM CLR 13/02 A3024 RMK AO2 SLP249 T01330017
KOTG 161456Z AUTO 20010KT 10SM CLR 11/01 A3025 RMK AO2 SLP255 T01060011 56004
KOTG 161356Z AUTO 21005KT 10SM CLR 06/02 A3026 RMK AO2 SLP259 T00610017
KOTG 161256Z AUTO 21007KT 10SM CLR 02/00 A3025 RMK AO2 SLP259 T00170000 FZRANO
KOTG 161156Z AUTO 22005KT 10SM CLR 02/M01 A3026 RMK AO2 SLP262 T00171006 10044 20006 57003 FZRANO
KOTG 161056Z AUTO 24004KT 10SM CLR 02/M01 A3027 RMK AO2 SLP262 T00171006 FZRANO
KOTG 160956Z AUTO 22004KT 10SM CLR 02/00 A3027 RMK AO2 SLP262 T00170000 FZRANO
KOTG 160856Z AUTO 24007KT 10SM CLR 02/M01 A3027 RMK AO2 SLP263 T00221006 50002 FZRANO
KOTG 160756Z AUTO 25006KT 10SM CLR 02/00 A3027 RMK AO2 SLP264 T00220000 FZRANO
KOTG 160656Z AUTO 25005KT 10SM CLR 03/01 A3027 RMK AO2 SLP263 T00280006